sensor_id;sensor_type;location;lat;lon;timestamp;P1;durP1;ratioP1;P2;durP2;ratioP2
18194;SDS011;9223;50.988;3.162;2024-03-22T00:04:33;16.48;;;9.27;;
18194;SDS011;9223;50.988;3.162;2024-03-22T00:10:36;12.13;;;7.18;;
18194;SDS011;9223;50.988;3.162;2024-03-22T00:16:41;14.27;;;7.82;;
18194;SDS011;9223;50.988;3.162;2024-03-22T00:22:45;9.85;;;5.80;;
18194;SDS011;9223;50.988;3.162;2024-03-22T00:28:49;13.57;;;8.23;;
18194;SDS011;9223;50.988;3.162;2024-03-22T00:34:54;13.90;;;8.13;;
18194;SDS011;9223;50.988;3.162;2024-03-22T00:40:59;9.30;;;5.93;;
18194;SDS011;9223;50.988;3.162;2024-03-22T00:47:02;7.70;;;4.78;;
18194;SDS011;9223;50.988;3.162;2024-03-22T00:53:08;6.97;;;4.53;;
18194;SDS011;9223;50.988;3.162;2024-03-22T00:59:12;11.38;;;5.60;;
18194;SDS011;9223;50.988;3.162;2024-03-22T01:05:15;12.15;;;7.25;;
18194;SDS011;9223;50.988;3.162;2024-03-22T01:11:22;10.07;;;6.47;;
18194;SDS011;9223;50.988;3.162;2024-03-22T01:17:25;10.35;;;7.05;;
18194;SDS011;9223;50.988;3.162;2024-03-22T01:23:32;6.28;;;3.92;;
18194;SDS011;9223;50.988;3.162;2024-03-22T01:29:36;10.20;;;6.32;;
18194;SDS011;9223;50.988;3.162;2024-03-22T01:35:40;9.70;;;6.80;;
18194;SDS011;9223;50.988;3.162;2024-03-22T01:41:43;9.10;;;5.82;;
18194;SDS011;9223;50.988;3.162;2024-03-22T01:47:48;7.50;;;5.13;;
18194;SDS011;9223;50.988;3.162;2024-03-22T01:53:50;11.30;;;6.35;;
18194;SDS011;9223;50.988;3.162;2024-03-22T01:59:55;9.93;;;6.35;;
18194;SDS011;9223;50.988;3.162;2024-03-22T02:05:59;8.48;;;5.70;;
18194;SDS011;9223;50.988;3.162;2024-03-22T02:12:02;10.48;;;5.78;;
18194;SDS011;9223;50.988;3.162;2024-03-22T02:18:04;7.78;;;5.32;;
18194;SDS011;9223;50.988;3.162;2024-03-22T02:24:09;10.38;;;6.07;;
18194;SDS011;9223;50.988;3.162;2024-03-22T02:30:12;10.43;;;7.00;;
18194;SDS011;9223;50.988;3.162;2024-03-22T02:36:14;11.35;;;6.53;;
18194;SDS011;9223;50.988;3.162;2024-03-22T02:42:18;10.88;;;6.45;;
18194;SDS011;9223;50.988;3.162;2024-03-22T02:48:21;8.48;;;5.15;;
18194;SDS011;9223;50.988;3.162;2024-03-22T02:54:23;4.93;;;3.83;;
18194;SDS011;9223;50.988;3.162;2024-03-22T03:00:28;6.68;;;4.05;;
18194;SDS011;9223;50.988;3.162;2024-03-22T03:06:30;6.38;;;4.10;;
18194;SDS011;9223;50.988;3.162;2024-03-22T03:12:33;4.72;;;4.00;;
18194;SDS011;9223;50.988;3.162;2024-03-22T03:18:37;7.60;;;4.70;;
18194;SDS011;9223;50.988;3.162;2024-03-22T03:24:40;7.68;;;4.32;;
18194;SDS011;9223;50.988;3.162;2024-03-22T03:30:42;5.25;;;3.88;;
18194;SDS011;9223;50.988;3.162;2024-03-22T03:36:46;7.35;;;4.45;;
18194;SDS011;9223;50.988;3.162;2024-03-22T03:42:49;5.38;;;3.97;;
18194;SDS011;9223;50.988;3.162;2024-03-22T03:48:52;9.50;;;4.10;;
18194;SDS011;9223;50.988;3.162;2024-03-22T03:54:56;4.07;;;3.28;;
18194;SDS011;9223;50.988;3.162;2024-03-22T04:00:58;5.22;;;3.40;;
18194;SDS011;9223;50.988;3.162;2024-03-22T04:07:01;5.65;;;3.67;;
18194;SDS011;9223;50.988;3.162;2024-03-22T04:13:05;4.40;;;3.03;;
18194;SDS011;9223;50.988;3.162;2024-03-22T04:19:09;4.60;;;3.03;;
18194;SDS011;9223;50.988;3.162;2024-03-22T04:25:11;4.45;;;3.35;;
18194;SDS011;9223;50.988;3.162;2024-03-22T04:31:15;5.65;;;3.40;;
18194;SDS011;9223;50.988;3.162;2024-03-22T04:37:18;3.65;;;2.35;;
18194;SDS011;9223;50.988;3.162;2024-03-22T04:43:21;3.55;;;2.58;;
18194;SDS011;9223;50.988;3.162;2024-03-22T04:49:24;4.63;;;2.22;;
18194;SDS011;9223;50.988;3.162;2024-03-22T04:55:27;5.25;;;3.28;;
18194;SDS011;9223;50.988;3.162;2024-03-22T05:01:30;3.28;;;2.10;;
18194;SDS011;9223;50.988;3.162;2024-03-22T05:07:33;5.35;;;3.70;;
18194;SDS011;9223;50.988;3.162;2024-03-22T05:13:36;5.10;;;2.55;;
18194;SDS011;9223;50.988;3.162;2024-03-22T05:19:40;4.40;;;2.95;;
18194;SDS011;9223;50.988;3.162;2024-03-22T05:25:44;4.68;;;2.67;;
18194;SDS011;9223;50.988;3.162;2024-03-22T05:31:47;3.63;;;2.80;;
18194;SDS011;9223;50.988;3.162;2024-03-22T05:37:49;5.68;;;3.53;;
18194;SDS011;9223;50.988;3.162;2024-03-22T05:43:53;2.97;;;2.38;;
18194;SDS011;9223;50.988;3.162;2024-03-22T05:49:56;5.30;;;3.85;;
18194;SDS011;9223;50.988;3.162;2024-03-22T05:55:58;4.07;;;2.75;;
18194;SDS011;9223;50.988;3.162;2024-03-22T06:02:02;4.10;;;2.40;;
18194;SDS011;9223;50.988;3.162;2024-03-22T06:08:05;4.13;;;2.80;;
18194;SDS011;9223;50.988;3.162;2024-03-22T06:14:08;4.53;;;2.50;;
18194;SDS011;9223;50.988;3.162;2024-03-22T06:20:12;5.20;;;3.10;;
18194;SDS011;9223;50.988;3.162;2024-03-22T06:26:15;7.95;;;3.85;;
18194;SDS011;9223;50.988;3.162;2024-03-22T06:32:17;8.75;;;3.65;;
18194;SDS011;9223;50.988;3.162;2024-03-22T06:38:21;8.70;;;3.72;;
18194;SDS011;9223;50.988;3.162;2024-03-22T06:44:24;10.80;;;4.20;;
18194;SDS011;9223;50.988;3.162;2024-03-22T06:50:27;9.35;;;4.07;;
18194;SDS011;9223;50.988;3.162;2024-03-22T06:56:31;10.77;;;4.72;;
18194;SDS011;9223;50.988;3.162;2024-03-22T07:02:33;8.13;;;3.50;;
18194;SDS011;9223;50.988;3.162;2024-03-22T07:08:36;8.15;;;3.50;;
18194;SDS011;9223;50.988;3.162;2024-03-22T07:14:40;6.97;;;3.80;;
18194;SDS011;9223;50.988;3.162;2024-03-22T07:20:42;7.28;;;4.18;;
18194;SDS011;9223;50.988;3.162;2024-03-22T07:26:45;8.98;;;5.72;;
18194;SDS011;9223;50.988;3.162;2024-03-22T07:32:49;8.20;;;4.60;;
18194;SDS011;9223;50.988;3.162;2024-03-22T07:38:51;8.65;;;4.57;;
18194;SDS011;9223;50.988;3.162;2024-03-22T07:44:54;11.18;;;5.22;;
18194;SDS011;9223;50.988;3.162;2024-03-22T07:50:58;14.93;;;5.93;;
18194;SDS011;9223;50.988;3.162;2024-03-22T07:57:01;4.97;;;2.30;;
18194;SDS011;9223;50.988;3.162;2024-03-22T08:03:04;6.03;;;4.50;;
18194;SDS011;9223;50.988;3.162;2024-03-22T08:09:08;7.38;;;3.70;;
18194;SDS011;9223;50.988;3.162;2024-03-22T08:15:11;7.95;;;3.88;;
18194;SDS011;9223;50.988;3.162;2024-03-22T08:21:13;5.22;;;2.78;;
18194;SDS011;9223;50.988;3.162;2024-03-22T08:27:18;5.88;;;3.45;;
18194;SDS011;9223;50.988;3.162;2024-03-22T08:33:20;7.43;;;3.45;;
18194;SDS011;9223;50.988;3.162;2024-03-22T08:39:23;2.30;;;2.08;;
18194;SDS011;9223;50.988;3.162;2024-03-22T08:45:27;4.57;;;2.35;;
18194;SDS011;9223;50.988;3.162;2024-03-22T08:51:29;4.32;;;2.30;;
18194;SDS011;9223;50.988;3.162;2024-03-22T08:57:32;5.03;;;2.40;;
18194;SDS011;9223;50.988;3.162;2024-03-22T09:03:36;4.53;;;1.95;;
18194;SDS011;9223;50.988;3.162;2024-03-22T09:09:39;5.25;;;2.25;;
18194;SDS011;9223;50.988;3.162;2024-03-22T09:15:42;4.25;;;2.05;;
18194;SDS011;9223;50.988;3.162;2024-03-22T09:21:46;5.10;;;2.70;;
18194;SDS011;9223;50.988;3.162;2024-03-22T09:27:48;5.25;;;1.70;;
18194;SDS011;9223;50.988;3.162;2024-03-22T09:33:51;6.10;;;2.38;;
18194;SDS011;9223;50.988;3.162;2024-03-22T09:39:55;4.30;;;1.92;;
18194;SDS011;9223;50.988;3.162;2024-03-22T09:45:58;6.43;;;2.65;;
18194;SDS011;9223;50.988;3.162;2024-03-22T09:52:00;5.72;;;2.58;;
18194;SDS011;9223;50.988;3.162;2024-03-22T09:58:06;9.88;;;2.85;;
18194;SDS011;9223;50.988;3.162;2024-03-22T10:04:08;3.55;;;2.10;;
18194;SDS011;9223;50.988;3.162;2024-03-22T10:10:10;4.32;;;1.80;;
18194;SDS011;9223;50.988;3.162;2024-03-22T10:16:16;2.95;;;1.65;;
18194;SDS011;9223;50.988;3.162;2024-03-22T10:22:19;3.08;;;1.75;;
18194;SDS011;9223;50.988;3.162;2024-03-22T10:28:22;4.38;;;2.13;;
18194;SDS011;9223;50.988;3.162;2024-03-22T10:34:27;3.83;;;2.58;;
18194;SDS011;9223;50.988;3.162;2024-03-22T10:40:29;6.75;;;2.25;;
18194;SDS011;9223;50.988;3.162;2024-03-22T10:46:32;5.53;;;2.85;;
18194;SDS011;9223;50.988;3.162;2024-03-22T10:52:37;4.78;;;2.47;;
18194;SDS011;9223;50.988;3.162;2024-03-22T10:58:41;6.18;;;2.85;;
18194;SDS011;9223;50.988;3.162;2024-03-22T11:04:53;3.40;;;2.10;;
18194;SDS011;9223;50.988;3.162;2024-03-22T11:10:57;8.88;;;3.72;;
18194;SDS011;9223;50.988;3.162;2024-03-22T11:17:00;3.92;;;2.47;;
18194;SDS011;9223;50.988;3.162;2024-03-22T11:23:03;6.32;;;3.13;;
18194;SDS011;9223;50.988;3.162;2024-03-22T11:29:07;6.45;;;3.80;;
18194;SDS011;9223;50.988;3.162;2024-03-22T11:35:10;4.32;;;2.42;;
18194;SDS011;9223;50.988;3.162;2024-03-22T11:41:12;4.28;;;2.90;;
18194;SDS011;9223;50.988;3.162;2024-03-22T11:47:18;5.00;;;2.63;;
18194;SDS011;9223;50.988;3.162;2024-03-22T11:53:21;5.20;;;2.35;;
18194;SDS011;9223;50.988;3.162;2024-03-22T11:59:24;5.50;;;2.70;;
18194;SDS011;9223;50.988;3.162;2024-03-22T12:05:29;4.40;;;2.90;;
18194;SDS011;9223;50.988;3.162;2024-03-22T12:11:32;5.30;;;4.05;;
18194;SDS011;9223;50.988;3.162;2024-03-22T12:17:34;5.70;;;3.03;;
18194;SDS011;9223;50.988;3.162;2024-03-22T12:23:39;3.22;;;2.22;;
18194;SDS011;9223;50.988;3.162;2024-03-22T12:29:42;4.93;;;3.33;;
18194;SDS011;9223;50.988;3.162;2024-03-22T12:35:45;5.22;;;3.95;;
18194;SDS011;9223;50.988;3.162;2024-03-22T12:41:50;6.90;;;4.10;;
18194;SDS011;9223;50.988;3.162;2024-03-22T12:47:52;3.65;;;2.38;;
18194;SDS011;9223;50.988;3.162;2024-03-22T12:53:55;3.58;;;2.10;;
18194;SDS011;9223;50.988;3.162;2024-03-22T12:59:59;6.07;;;3.70;;
18194;SDS011;9223;50.988;3.162;2024-03-22T13:06:05;4.90;;;2.08;;
18194;SDS011;9223;50.988;3.162;2024-03-22T13:12:08;4.70;;;3.92;;
18194;SDS011;9223;50.988;3.162;2024-03-22T13:18:12;5.05;;;2.55;;
18194;SDS011;9223;50.988;3.162;2024-03-22T13:24:14;4.50;;;2.90;;
18194;SDS011;9223;50.988;3.162;2024-03-22T13:30:17;4.53;;;2.90;;
18194;SDS011;9223;50.988;3.162;2024-03-22T13:36:21;4.88;;;3.40;;
18194;SDS011;9223;50.988;3.162;2024-03-22T13:42:26;6.90;;;3.53;;
18194;SDS011;9223;50.988;3.162;2024-03-22T13:48:28;3.88;;;3.30;;
18194;SDS011;9223;50.988;3.162;2024-03-22T13:54:32;5.78;;;4.20;;
18194;SDS011;9223;50.988;3.162;2024-03-22T14:00:35;4.93;;;3.53;;
18194;SDS011;9223;50.988;3.162;2024-03-22T14:06:42;3.83;;;2.50;;
18194;SDS011;9223;50.988;3.162;2024-03-22T14:12:46;4.07;;;2.55;;
18194;SDS011;9223;50.988;3.162;2024-03-22T14:18:48;4.00;;;3.30;;
18194;SDS011;9223;50.988;3.162;2024-03-22T14:24:51;4.50;;;2.85;;
18194;SDS011;9223;50.988;3.162;2024-03-22T14:30:55;5.13;;;2.90;;
18194;SDS011;9223;50.988;3.162;2024-03-22T14:36:57;2.70;;;2.50;;
18194;SDS011;9223;50.988;3.162;2024-03-22T14:43:00;4.38;;;3.30;;
18194;SDS011;9223;50.988;3.162;2024-03-22T14:49:06;2.63;;;2.22;;
18194;SDS011;9223;50.988;3.162;2024-03-22T14:55:08;4.00;;;2.00;;
18194;SDS011;9223;50.988;3.162;2024-03-22T15:01:11;2.92;;;1.30;;
18194;SDS011;9223;50.988;3.162;2024-03-22T15:07:15;1.70;;;1.20;;
18194;SDS011;9223;50.988;3.162;2024-03-22T15:13:18;2.20;;;1.60;;
18194;SDS011;9223;50.988;3.162;2024-03-22T15:19:20;2.92;;;2.63;;
18194;SDS011;9223;50.988;3.162;2024-03-22T15:25:24;3.92;;;3.45;;
18194;SDS011;9223;50.988;3.162;2024-03-22T15:31:27;2.83;;;2.55;;
18194;SDS011;9223;50.988;3.162;2024-03-22T15:37:29;9.35;;;2.50;;
18194;SDS011;9223;50.988;3.162;2024-03-22T15:43:34;3.42;;;2.50;;
18194;SDS011;9223;50.988;3.162;2024-03-22T15:49:36;4.32;;;3.28;;
18194;SDS011;9223;50.988;3.162;2024-03-22T15:55:39;3.58;;;3.10;;
18194;SDS011;9223;50.988;3.162;2024-03-22T16:01:43;3.35;;;2.38;;
18194;SDS011;9223;50.988;3.162;2024-03-22T16:07:46;4.43;;;4.03;;
18194;SDS011;9223;50.988;3.162;2024-03-22T16:13:48;3.33;;;2.58;;
18194;SDS011;9223;50.988;3.162;2024-03-22T16:19:52;3.72;;;3.35;;
18194;SDS011;9223;50.988;3.162;2024-03-22T16:25:55;4.13;;;2.13;;
18194;SDS011;9223;50.988;3.162;2024-03-22T16:31:57;3.33;;;2.25;;
18194;SDS011;9223;50.988;3.162;2024-03-22T16:38:03;3.15;;;2.40;;
18194;SDS011;9223;50.988;3.162;2024-03-22T16:44:06;4.55;;;2.35;;
18194;SDS011;9223;50.988;3.162;2024-03-22T16:50:09;3.60;;;2.33;;
18194;SDS011;9223;50.988;3.162;2024-03-22T16:56:14;4.93;;;3.17;;
18194;SDS011;9223;50.988;3.162;2024-03-22T17:02:16;3.00;;;2.70;;
18194;SDS011;9223;50.988;3.162;2024-03-22T17:08:19;3.97;;;2.90;;
18194;SDS011;9223;50.988;3.162;2024-03-22T17:14:23;4.05;;;3.05;;
18194;SDS011;9223;50.988;3.162;2024-03-22T17:20:25;4.53;;;2.85;;
18194;SDS011;9223;50.988;3.162;2024-03-22T17:26:29;3.60;;;3.15;;
18194;SDS011;9223;50.988;3.162;2024-03-22T17:32:33;5.03;;;4.00;;
18194;SDS011;9223;50.988;3.162;2024-03-22T17:38:35;5.47;;;3.95;;
18194;SDS011;9223;50.988;3.162;2024-03-22T17:44:39;5.40;;;3.95;;
18194;SDS011;9223;50.988;3.162;2024-03-22T17:50:43;5.13;;;3.00;;
18194;SDS011;9223;50.988;3.162;2024-03-22T17:56:45;4.38;;;2.83;;
18194;SDS011;9223;50.988;3.162;2024-03-22T18:02:48;2.40;;;2.10;;
18194;SDS011;9223;50.988;3.162;2024-03-22T18:08:51;2.60;;;2.30;;
18194;SDS011;9223;50.988;3.162;2024-03-22T18:14:54;2.75;;;2.00;;
18194;SDS011;9223;50.988;3.162;2024-03-22T18:20:57;2.47;;;2.20;;
18194;SDS011;9223;50.988;3.162;2024-03-22T18:27:01;3.20;;;2.47;;
18194;SDS011;9223;50.988;3.162;2024-03-22T18:33:04;3.55;;;2.55;;
18194;SDS011;9223;50.988;3.162;2024-03-22T18:39:07;4.13;;;3.25;;
18194;SDS011;9223;50.988;3.162;2024-03-22T18:45:11;4.65;;;3.65;;
18194;SDS011;9223;50.988;3.162;2024-03-22T18:51:13;5.10;;;4.28;;
18194;SDS011;9223;50.988;3.162;2024-03-22T18:57:16;5.95;;;4.97;;
18194;SDS011;9223;50.988;3.162;2024-03-22T19:03:20;6.53;;;4.60;;
18194;SDS011;9223;50.988;3.162;2024-03-22T19:09:22;7.45;;;5.03;;
18194;SDS011;9223;50.988;3.162;2024-03-22T19:15:25;7.07;;;4.90;;
18194;SDS011;9223;50.988;3.162;2024-03-22T19:21:29;5.82;;;4.28;;
18194;SDS011;9223;50.988;3.162;2024-03-22T19:27:32;6.13;;;4.28;;
18194;SDS011;9223;50.988;3.162;2024-03-22T19:33:34;6.95;;;3.90;;
18194;SDS011;9223;50.988;3.162;2024-03-22T19:39:38;6.78;;;3.58;;
18194;SDS011;9223;50.988;3.162;2024-03-22T19:45:41;5.32;;;3.40;;
18194;SDS011;9223;50.988;3.162;2024-03-22T19:51:45;5.55;;;3.13;;
18194;SDS011;9223;50.988;3.162;2024-03-22T19:57:49;8.23;;;4.75;;
18194;SDS011;9223;50.988;3.162;2024-03-22T20:03:51;6.68;;;4.20;;
18194;SDS011;9223;50.988;3.162;2024-03-22T20:09:55;7.53;;;3.40;;
18194;SDS011;9223;50.988;3.162;2024-03-22T20:15:58;6.18;;;3.10;;
18194;SDS011;9223;50.988;3.162;2024-03-22T20:22:01;6.90;;;2.58;;
18194;SDS011;9223;50.988;3.162;2024-03-22T20:28:04;6.85;;;2.65;;
18194;SDS011;9223;50.988;3.162;2024-03-22T20:34:09;7.03;;;3.67;;
